This is the latest recevied weather packets stored in our database for station/object LU1HKO-13. If no packets are shown the sender has not sent any weather packets the latest 10 day(s).
| Time | Temp. | Humidity | Pressure | Rain* | Wind** | Luminosity | Snow |
|---|---|---|---|---|---|---|---|
| 1777792850 | 12.22° C | 42% | 1025.5 hPa | 0 mm | - | - | - |
| 1777779671 | 12.22° C | 54% | 1028.9 hPa | 0 mm | - | - | - |
| 1777777890 | 12.22° C | 51% | 1029.2 hPa | 0 mm | - | - | - |
| 1777776655 | 12.22° C | 50% | 1029.4 hPa | 0 mm | - | - | - |
| 1777776028 | 12.78° C | 50% | 1029.7 hPa | 0 mm | - | - | - |
| 1777774266 | 12.78° C | 50% | 1029.7 hPa | 0 mm | - | - | - |
| 1777770076 | 12.22° C | 50% | 1030 hPa | 0 mm | - | - | - |
| 1777755624 | 17.78° C | 25% | 1029.7 hPa | 0 mm | - | - | - |
| 1777752040 | 17.78° C | 23% | 1030.1 hPa | 0 mm | - | - | - |
| 1777749065 | 17.78° C | 23% | 1030.4 hPa | 0 mm | - | - | - |
| 1777747850 | 18.33° C | 24% | 1030.6 hPa | 0 mm | - | - | - |
| 1777746029 | 18.33° C | 24% | 1030.9 hPa | 0 mm | - | - | - |
| 1777744267 | 18.33° C | 23% | 1031 hPa | 0 mm | - | - | - |
| 1777743660 | 18.89° C | 23% | 1031.1 hPa | 0 mm | - | - | - |
| 1777742446 | 18.89° C | 23% | 1031.2 hPa | 0 mm | - | - | - |
| 1777741858 | 18.89° C | 21% | 1031.4 hPa | 0 mm | - | - | - |
| 1777741231 | 19.44° C | 22% | 1031.6 hPa | 0 mm | - | - | - |
| 1777740624 | 18.89° C | 23% | 1031.7 hPa | 0 mm | - | - | - |
| 1777736454 | 17.78° C | 23% | 1032.8 hPa | 0 mm | - | - | - |
| 1777732850 | 16.11° C | 28% | 1033.1 hPa | 0 mm | - | - | - |
| 1777731028 | 15° C | 31% | 1033.2 hPa | 0 mm | - | - | - |
| 1777730441 | 15° C | 33% | 1033.1 hPa | 0 mm | - | - | - |
| 1777728660 | 13.89° C | 34% | 1033 hPa | 0 mm | - | - | - |
| 1777720826 | 13.89° C | 47% | 1030.2 hPa | 0 mm | - | - | - |
| 1777720219 | 13.89° C | 48% | 1030 hPa | 0 mm | - | - | - |
* Rain latest hour (hover to see other rain measurements)
** Current wind speed in m/s (hover to see current wind gust speed)